sensor_id;sensor_type;location;lat;lon;timestamp;P1;durP1;ratioP1;P2;durP2;ratioP2
20713;SDS011;10518;50.742;4.226;2023-05-10T00:00:38;1.95;;;1.63;;
20713;SDS011;10518;50.742;4.226;2023-05-10T00:03:04;1.77;;;1.35;;
20713;SDS011;10518;50.742;4.226;2023-05-10T00:05:30;1.77;;;1.02;;
20713;SDS011;10518;50.742;4.226;2023-05-10T00:07:56;2.00;;;1.40;;
20713;SDS011;10518;50.742;4.226;2023-05-10T00:10:22;1.67;;;1.05;;
20713;SDS011;10518;50.742;4.226;2023-05-10T00:12:47;1.20;;;1.10;;
20713;SDS011;10518;50.742;4.226;2023-05-10T00:15:13;1.20;;;1.05;;
20713;SDS011;10518;50.742;4.226;2023-05-10T00:17:39;1.92;;;1.48;;
20713;SDS011;10518;50.742;4.226;2023-05-10T00:20:05;1.13;;;1.02;;
20713;SDS011;10518;50.742;4.226;2023-05-10T00:22:31;2.20;;;1.30;;
20713;SDS011;10518;50.742;4.226;2023-05-10T00:24:57;1.75;;;1.35;;
20713;SDS011;10518;50.742;4.226;2023-05-10T00:27:23;1.85;;;1.58;;
20713;SDS011;10518;50.742;4.226;2023-05-10T00:29:49;1.33;;;1.23;;
20713;SDS011;10518;50.742;4.226;2023-05-10T00:32:14;1.67;;;1.35;;
20713;SDS011;10518;50.742;4.226;2023-05-10T00:34:41;7.20;;;1.40;;
20713;SDS011;10518;50.742;4.226;2023-05-10T00:37:07;2.10;;;1.90;;
20713;SDS011;10518;50.742;4.226;2023-05-10T00:39:32;1.08;;;1.00;;
20713;SDS011;10518;50.742;4.226;2023-05-10T00:41:58;1.48;;;1.35;;
20713;SDS011;10518;50.742;4.226;2023-05-10T00:44:24;1.17;;;1.08;;
20713;SDS011;10518;50.742;4.226;2023-05-10T00:46:50;1.50;;;1.40;;
20713;SDS011;10518;50.742;4.226;2023-05-10T00:49:16;2.00;;;1.45;;
20713;SDS011;10518;50.742;4.226;2023-05-10T00:51:42;1.15;;;1.05;;
20713;SDS011;10518;50.742;4.226;2023-05-10T00:54:12;0.90;;;0.90;;
20713;SDS011;10518;50.742;4.226;2023-05-10T00:56:40;2.17;;;1.40;;
20713;SDS011;10518;50.742;4.226;2023-05-10T00:59:06;3.65;;;2.05;;
20713;SDS011;10518;50.742;4.226;2023-05-10T01:01:34;2.72;;;1.77;;
20713;SDS011;10518;50.742;4.226;2023-05-10T01:04:00;2.83;;;1.88;;
20713;SDS011;10518;50.742;4.226;2023-05-10T01:06:28;1.42;;;1.33;;
20713;SDS011;10518;50.742;4.226;2023-05-10T01:08:53;4.47;;;3.10;;
20713;SDS011;10518;50.742;4.226;2023-05-10T01:11:20;2.05;;;1.40;;
20713;SDS011;10518;50.742;4.226;2023-05-10T01:13:47;6.38;;;1.73;;
20713;SDS011;10518;50.742;4.226;2023-05-10T01:16:18;2.15;;;1.90;;
20713;SDS011;10518;50.742;4.226;2023-05-10T01:18:44;1.83;;;1.42;;
20713;SDS011;10518;50.742;4.226;2023-05-10T01:32:38;3.25;;;1.92;;
20713;SDS011;10518;50.742;4.226;2023-05-10T01:35:17;1.90;;;1.50;;
20713;SDS011;10518;50.742;4.226;2023-05-10T01:40:32;2.90;;;2.13;;
20713;SDS011;10518;50.742;4.226;2023-05-10T01:43:06;2.45;;;1.70;;
20713;SDS011;10518;50.742;4.226;2023-05-10T01:48:11;1.45;;;1.35;;
20713;SDS011;10518;50.742;4.226;2023-05-10T01:50:40;2.05;;;1.35;;
20713;SDS011;10518;50.742;4.226;2023-05-10T01:53:09;3.25;;;1.50;;
20713;SDS011;10518;50.742;4.226;2023-05-10T01:55:41;2.28;;;1.85;;
20713;SDS011;10518;50.742;4.226;2023-05-10T01:58:12;1.90;;;1.40;;
20713;SDS011;10518;50.742;4.226;2023-05-10T02:00:47;2.15;;;1.70;;
20713;SDS011;10518;50.742;4.226;2023-05-10T02:03:14;3.50;;;2.17;;
20713;SDS011;10518;50.742;4.226;2023-05-10T02:05:43;2.08;;;1.67;;
20713;SDS011;10518;50.742;4.226;2023-05-10T02:08:10;2.85;;;1.70;;
20713;SDS011;10518;50.742;4.226;2023-05-10T02:10:38;1.90;;;1.23;;
20713;SDS011;10518;50.742;4.226;2023-05-10T02:13:05;1.50;;;1.08;;
20713;SDS011;10518;50.742;4.226;2023-05-10T02:15:32;1.42;;;1.33;;
20713;SDS011;10518;50.742;4.226;2023-05-10T02:17:59;3.03;;;1.52;;
20713;SDS011;10518;50.742;4.226;2023-05-10T02:20:25;2.38;;;1.65;;
20713;SDS011;10518;50.742;4.226;2023-05-10T02:22:52;1.75;;;1.20;;
20713;SDS011;10518;50.742;4.226;2023-05-10T02:25:21;3.95;;;1.80;;
20713;SDS011;10518;50.742;4.226;2023-05-10T02:27:48;1.90;;;1.50;;
20713;SDS011;10518;50.742;4.226;2023-05-10T02:30:15;2.90;;;1.58;;
20713;SDS011;10518;50.742;4.226;2023-05-10T02:32:42;1.63;;;1.52;;
20713;SDS011;10518;50.742;4.226;2023-05-10T02:35:09;1.65;;;1.55;;
20713;SDS011;10518;50.742;4.226;2023-05-10T02:37:36;2.67;;;1.20;;
20713;SDS011;10518;50.742;4.226;2023-05-10T02:40:03;1.73;;;1.25;;
20713;SDS011;10518;50.742;4.226;2023-05-10T02:42:31;1.23;;;1.13;;
20713;SDS011;10518;50.742;4.226;2023-05-10T02:45:01;4.95;;;2.20;;
20713;SDS011;10518;50.742;4.226;2023-05-10T02:47:30;5.18;;;2.33;;
20713;SDS011;10518;50.742;4.226;2023-05-10T02:49:56;3.60;;;2.28;;
20713;SDS011;10518;50.742;4.226;2023-05-10T02:52:23;2.05;;;1.75;;
20713;SDS011;10518;50.742;4.226;2023-05-10T02:54:52;2.72;;;1.75;;
20713;SDS011;10518;50.742;4.226;2023-05-10T02:57:26;2.65;;;2.15;;
20713;SDS011;10518;50.742;4.226;2023-05-10T02:59:57;1.77;;;1.67;;
20713;SDS011;10518;50.742;4.226;2023-05-10T03:02:23;4.43;;;2.60;;
20713;SDS011;10518;50.742;4.226;2023-05-10T03:04:49;3.63;;;2.10;;
20713;SDS011;10518;50.742;4.226;2023-05-10T03:07:14;2.78;;;2.40;;
20713;SDS011;10518;50.742;4.226;2023-05-10T03:09:41;1.95;;;1.55;;
20713;SDS011;10518;50.742;4.226;2023-05-10T03:17:19;3.83;;;1.75;;
20713;SDS011;10518;50.742;4.226;2023-05-10T03:20:03;3.25;;;2.13;;
20713;SDS011;10518;50.742;4.226;2023-05-10T03:22:37;3.72;;;1.85;;
20713;SDS011;10518;50.742;4.226;2023-05-10T03:25:06;2.03;;;1.85;;
20713;SDS011;10518;50.742;4.226;2023-05-10T03:27:36;2.95;;;1.90;;
20713;SDS011;10518;50.742;4.226;2023-05-10T03:30:05;2.10;;;1.90;;
20713;SDS011;10518;50.742;4.226;2023-05-10T03:32:32;2.45;;;2.10;;
20713;SDS011;10518;50.742;4.226;2023-05-10T03:34:59;4.72;;;2.35;;
20713;SDS011;10518;50.742;4.226;2023-05-10T03:37:25;4.43;;;2.55;;
20713;SDS011;10518;50.742;4.226;2023-05-10T03:39:50;3.50;;;1.90;;
20713;SDS011;10518;50.742;4.226;2023-05-10T03:42:16;3.53;;;2.33;;
20713;SDS011;10518;50.742;4.226;2023-05-10T03:44:42;6.47;;;2.50;;
20713;SDS011;10518;50.742;4.226;2023-05-10T03:47:08;3.28;;;2.13;;
20713;SDS011;10518;50.742;4.226;2023-05-10T03:49:34;2.28;;;1.90;;
20713;SDS011;10518;50.742;4.226;2023-05-10T03:51:59;3.80;;;2.45;;
20713;SDS011;10518;50.742;4.226;2023-05-10T03:54:25;4.45;;;2.58;;
20713;SDS011;10518;50.742;4.226;2023-05-10T03:56:51;2.20;;;2.05;;
20713;SDS011;10518;50.742;4.226;2023-05-10T03:59:16;4.47;;;2.65;;
20713;SDS011;10518;50.742;4.226;2023-05-10T04:01:42;4.30;;;2.17;;
20713;SDS011;10518;50.742;4.226;2023-05-10T04:04:08;4.63;;;2.50;;
20713;SDS011;10518;50.742;4.226;2023-05-10T04:06:33;2.75;;;1.48;;
20713;SDS011;10518;50.742;4.226;2023-05-10T04:08:59;2.53;;;2.33;;
20713;SDS011;10518;50.742;4.226;2023-05-10T04:11:28;6.20;;;2.17;;
20713;SDS011;10518;50.742;4.226;2023-05-10T04:13:54;3.13;;;2.05;;
20713;SDS011;10518;50.742;4.226;2023-05-10T04:16:20;1.50;;;1.40;;
20713;SDS011;10518;50.742;4.226;2023-05-10T04:18:45;1.20;;;1.00;;
20713;SDS011;10518;50.742;4.226;2023-05-10T04:21:14;2.40;;;2.03;;
20713;SDS011;10518;50.742;4.226;2023-05-10T04:23:39;1.33;;;1.25;;
20713;SDS011;10518;50.742;4.226;2023-05-10T04:26:05;1.67;;;1.55;;
20713;SDS011;10518;50.742;4.226;2023-05-10T04:28:31;2.65;;;1.95;;
20713;SDS011;10518;50.742;4.226;2023-05-10T04:31:00;1.83;;;1.67;;
20713;SDS011;10518;50.742;4.226;2023-05-10T04:33:30;1.40;;;1.30;;
20713;SDS011;10518;50.742;4.226;2023-05-10T04:35:56;3.50;;;1.67;;
20713;SDS011;10518;50.742;4.226;2023-05-10T04:38:21;3.42;;;2.10;;
20713;SDS011;10518;50.742;4.226;2023-05-10T04:40:47;2.67;;;1.77;;
20713;SDS011;10518;50.742;4.226;2023-05-10T04:43:12;6.37;;;2.20;;
20713;SDS011;10518;50.742;4.226;2023-05-10T04:45:38;1.40;;;1.30;;
20713;SDS011;10518;50.742;4.226;2023-05-10T04:48:04;1.87;;;1.40;;
20713;SDS011;10518;50.742;4.226;2023-05-10T04:50:30;1.75;;;1.65;;
20713;SDS011;10518;50.742;4.226;2023-05-10T04:52:56;1.80;;;1.55;;
20713;SDS011;10518;50.742;4.226;2023-05-10T04:55:22;2.03;;;1.90;;
20713;SDS011;10518;50.742;4.226;2023-05-10T04:57:47;2.28;;;2.08;;
20713;SDS011;10518;50.742;4.226;2023-05-10T05:00:13;1.98;;;1.77;;
20713;SDS011;10518;50.742;4.226;2023-05-10T05:02:42;2.15;;;1.58;;
20713;SDS011;10518;50.742;4.226;2023-05-10T05:05:09;2.42;;;2.00;;
20713;SDS011;10518;50.742;4.226;2023-05-10T05:07:34;1.65;;;1.55;;
20713;SDS011;10518;50.742;4.226;2023-05-10T05:10:00;1.85;;;1.75;;
20713;SDS011;10518;50.742;4.226;2023-05-10T05:12:26;2.72;;;1.90;;
20713;SDS011;10518;50.742;4.226;2023-05-10T05:14:51;4.15;;;1.35;;
20713;SDS011;10518;50.742;4.226;2023-05-10T05:17:17;2.22;;;1.52;;
20713;SDS011;10518;50.742;4.226;2023-05-10T05:19:43;1.50;;;1.35;;
20713;SDS011;10518;50.742;4.226;2023-05-10T05:22:08;1.35;;;1.25;;
20713;SDS011;10518;50.742;4.226;2023-05-10T05:24:37;4.13;;;1.45;;
20713;SDS011;10518;50.742;4.226;2023-05-10T05:27:03;1.38;;;1.27;;
20713;SDS011;10518;50.742;4.226;2023-05-10T05:29:29;1.40;;;1.30;;
20713;SDS011;10518;50.742;4.226;2023-05-10T05:31:54;1.33;;;1.23;;
20713;SDS011;10518;50.742;4.226;2023-05-10T05:34:20;1.10;;;1.10;;
20713;SDS011;10518;50.742;4.226;2023-05-10T05:36:46;1.17;;;1.08;;
20713;SDS011;10518;50.742;4.226;2023-05-10T05:39:12;0.93;;;0.93;;
20713;SDS011;10518;50.742;4.226;2023-05-10T05:41:38;2.08;;;1.60;;
20713;SDS011;10518;50.742;4.226;2023-05-10T05:44:04;1.30;;;1.20;;
20713;SDS011;10518;50.742;4.226;2023-05-10T05:46:29;1.55;;;1.02;;
20713;SDS011;10518;50.742;4.226;2023-05-10T05:48:55;1.27;;;1.20;;
20713;SDS011;10518;50.742;4.226;2023-05-10T05:51:21;1.75;;;1.65;;
20713;SDS011;10518;50.742;4.226;2023-05-10T05:53:47;1.20;;;1.10;;
20713;SDS011;10518;50.742;4.226;2023-05-10T05:56:12;0.90;;;0.90;;
20713;SDS011;10518;50.742;4.226;2023-05-10T05:58:38;2.00;;;1.20;;
20713;SDS011;10518;50.742;4.226;2023-05-10T06:01:04;1.33;;;1.23;;
20713;SDS011;10518;50.742;4.226;2023-05-10T06:03:30;1.85;;;1.55;;
20713;SDS011;10518;50.742;4.226;2023-05-10T06:05:55;1.23;;;1.13;;
20713;SDS011;10518;50.742;4.226;2023-05-10T06:08:24;1.20;;;1.10;;
20713;SDS011;10518;50.742;4.226;2023-05-10T06:10:50;0.82;;;0.82;;
20713;SDS011;10518;50.742;4.226;2023-05-10T06:13:16;0.90;;;0.90;;
20713;SDS011;10518;50.742;4.226;2023-05-10T06:15:41;0.90;;;0.90;;
20713;SDS011;10518;50.742;4.226;2023-05-10T06:18:07;1.33;;;1.10;;
20713;SDS011;10518;50.742;4.226;2023-05-10T06:20:33;1.42;;;1.10;;
20713;SDS011;10518;50.742;4.226;2023-05-10T06:22:58;1.35;;;0.90;;
20713;SDS011;10518;50.742;4.226;2023-05-10T06:25:24;1.17;;;1.08;;
20713;SDS011;10518;50.742;4.226;2023-05-10T06:27:50;1.13;;;0.90;;
20713;SDS011;10518;50.742;4.226;2023-05-10T06:30:20;0.80;;;0.80;;
20713;SDS011;10518;50.742;4.226;2023-05-10T06:32:48;0.80;;;0.80;;
20713;SDS011;10518;50.742;4.226;2023-05-10T06:35:13;0.90;;;0.90;;
20713;SDS011;10518;50.742;4.226;2023-05-10T06:37:39;0.80;;;0.80;;
20713;SDS011;10518;50.742;4.226;2023-05-10T06:40:05;0.88;;;0.80;;
20713;SDS011;10518;50.742;4.226;2023-05-10T06:42:31;0.85;;;0.80;;
20713;SDS011;10518;50.742;4.226;2023-05-10T06:44:57;2.05;;;1.15;;
20713;SDS011;10518;50.742;4.226;2023-05-10T06:47:22;0.80;;;0.80;;
20713;SDS011;10518;50.742;4.226;2023-05-10T06:49:48;1.00;;;1.00;;
20713;SDS011;10518;50.742;4.226;2023-05-10T06:52:14;1.20;;;0.85;;
20713;SDS011;10518;50.742;4.226;2023-05-10T06:54:39;0.70;;;0.70;;
20713;SDS011;10518;50.742;4.226;2023-05-10T06:57:05;1.42;;;0.75;;
20713;SDS011;10518;50.742;4.226;2023-05-10T06:59:31;1.98;;;1.05;;
20713;SDS011;10518;50.742;4.226;2023-05-10T07:01:57;1.05;;;0.90;;
20713;SDS011;10518;50.742;4.226;2023-05-10T07:04:22;1.05;;;0.73;;
20713;SDS011;10518;50.742;4.226;2023-05-10T07:06:48;0.90;;;0.80;;
20713;SDS011;10518;50.742;4.226;2023-05-10T07:09:14;2.58;;;1.13;;
20713;SDS011;10518;50.742;4.226;2023-05-10T07:11:40;4.75;;;0.95;;
20713;SDS011;10518;50.742;4.226;2023-05-10T07:14:06;0.93;;;0.93;;
20713;SDS011;10518;50.742;4.226;2023-05-10T07:16:32;1.33;;;1.05;;
20713;SDS011;10518;50.742;4.226;2023-05-10T07:18:57;0.80;;;0.80;;
20713;SDS011;10518;50.742;4.226;2023-05-10T07:21:23;1.10;;;1.00;;
20713;SDS011;10518;50.742;4.226;2023-05-10T07:23:49;0.88;;;0.88;;
20713;SDS011;10518;50.742;4.226;2023-05-10T07:26:15;1.20;;;0.98;;
20713;SDS011;10518;50.742;4.226;2023-05-10T07:28:41;1.05;;;1.05;;
20713;SDS011;10518;50.742;4.226;2023-05-10T07:31:07;3.30;;;1.27;;
20713;SDS011;10518;50.742;4.226;2023-05-10T07:33:32;0.80;;;0.80;;
20713;SDS011;10518;50.742;4.226;2023-05-10T07:35:58;0.70;;;0.70;;
20713;SDS011;10518;50.742;4.226;2023-05-10T07:38:24;0.60;;;0.60;;
20713;SDS011;10518;50.742;4.226;2023-05-10T07:40:49;0.63;;;0.63;;
20713;SDS011;10518;50.742;4.226;2023-05-10T07:43:15;1.00;;;0.90;;
20713;SDS011;10518;50.742;4.226;2023-05-10T07:45:40;0.70;;;0.70;;
20713;SDS011;10518;50.742;4.226;2023-05-10T07:48:06;1.13;;;0.90;;
20713;SDS011;10518;50.742;4.226;2023-05-10T07:50:32;1.02;;;0.90;;
20713;SDS011;10518;50.742;4.226;2023-05-10T07:52:57;0.60;;;0.60;;
20713;SDS011;10518;50.742;4.226;2023-05-10T07:55:23;0.65;;;0.65;;
20713;SDS011;10518;50.742;4.226;2023-05-10T07:57:49;0.80;;;0.80;;
20713;SDS011;10518;50.742;4.226;2023-05-10T08:00:16;0.73;;;0.73;;
20713;SDS011;10518;50.742;4.226;2023-05-10T08:02:43;0.65;;;0.65;;
20713;SDS011;10518;50.742;4.226;2023-05-10T08:05:08;0.60;;;0.60;;
20713;SDS011;10518;50.742;4.226;2023-05-10T08:07:34;0.70;;;0.70;;
20713;SDS011;10518;50.742;4.226;2023-05-10T08:10:00;0.60;;;0.60;;
20713;SDS011;10518;50.742;4.226;2023-05-10T08:12:26;0.60;;;0.60;;
20713;SDS011;10518;50.742;4.226;2023-05-10T08:14:52;0.60;;;0.60;;
20713;SDS011;10518;50.742;4.226;2023-05-10T08:17:17;0.60;;;0.60;;
20713;SDS011;10518;50.742;4.226;2023-05-10T08:19:43;0.60;;;0.60;;
20713;SDS011;10518;50.742;4.226;2023-05-10T08:22:08;0.60;;;0.60;;
20713;SDS011;10518;50.742;4.226;2023-05-10T08:24:35;1.17;;;1.08;;
20713;SDS011;10518;50.742;4.226;2023-05-10T08:27:03;0.80;;;0.80;;
20713;SDS011;10518;50.742;4.226;2023-05-10T08:29:32;0.55;;;0.55;;
20713;SDS011;10518;50.742;4.226;2023-05-10T08:31:58;0.50;;;0.50;;
20713;SDS011;10518;50.742;4.226;2023-05-10T08:34:23;0.82;;;0.82;;
20713;SDS011;10518;50.742;4.226;2023-05-10T08:36:50;0.80;;;0.80;;
20713;SDS011;10518;50.742;4.226;2023-05-10T08:39:15;0.60;;;0.60;;
20713;SDS011;10518;50.742;4.226;2023-05-10T08:41:41;0.90;;;0.90;;
20713;SDS011;10518;50.742;4.226;2023-05-10T08:44:09;0.85;;;0.82;;
20713;SDS011;10518;50.742;4.226;2023-05-10T08:46:35;0.80;;;0.80;;
20713;SDS011;10518;50.742;4.226;2023-05-10T08:49:04;0.77;;;0.77;;
20713;SDS011;10518;50.742;4.226;2023-05-10T08:51:35;0.68;;;0.68;;
20713;SDS011;10518;50.742;4.226;2023-05-10T08:54:05;0.73;;;0.73;;
20713;SDS011;10518;50.742;4.226;2023-05-10T08:56:31;0.80;;;0.80;;
20713;SDS011;10518;50.742;4.226;2023-05-10T08:58:57;0.60;;;0.60;;
20713;SDS011;10518;50.742;4.226;2023-05-10T09:01:22;0.60;;;0.60;;
20713;SDS011;10518;50.742;4.226;2023-05-10T09:03:49;0.82;;;0.82;;
20713;SDS011;10518;50.742;4.226;2023-05-10T09:06:15;0.93;;;0.93;;
20713;SDS011;10518;50.742;4.226;2023-05-10T09:08:42;0.98;;;0.88;;
20713;SDS011;10518;50.742;4.226;2023-05-10T09:11:08;0.75;;;0.75;;
20713;SDS011;10518;50.742;4.226;2023-05-10T09:13:35;0.65;;;0.65;;
20713;SDS011;10518;50.742;4.226;2023-05-10T09:16:02;0.98;;;0.90;;
20713;SDS011;10518;50.742;4.226;2023-05-10T09:18:28;0.85;;;0.68;;
20713;SDS011;10518;50.742;4.226;2023-05-10T09:20:54;1.05;;;0.88;;
20713;SDS011;10518;50.742;4.226;2023-05-10T09:23:20;0.82;;;0.82;;
20713;SDS011;10518;50.742;4.226;2023-05-10T09:25:45;0.93;;;0.93;;
20713;SDS011;10518;50.742;4.226;2023-05-10T09:28:11;0.80;;;0.80;;
20713;SDS011;10518;50.742;4.226;2023-05-10T09:30:37;0.70;;;0.70;;
20713;SDS011;10518;50.742;4.226;2023-05-10T09:33:04;0.77;;;0.77;;
20713;SDS011;10518;50.742;4.226;2023-05-10T09:35:30;0.75;;;0.75;;
20713;SDS011;10518;50.742;4.226;2023-05-10T09:37:59;1.00;;;0.90;;
20713;SDS011;10518;50.742;4.226;2023-05-10T09:40:28;0.80;;;0.80;;
20713;SDS011;10518;50.742;4.226;2023-05-10T09:43:04;1.00;;;0.90;;
20713;SDS011;10518;50.742;4.226;2023-05-10T09:45:33;0.88;;;0.88;;
20713;SDS011;10518;50.742;4.226;2023-05-10T09:48:00;0.95;;;0.88;;
20713;SDS011;10518;50.742;4.226;2023-05-10T09:50:27;0.80;;;0.80;;
20713;SDS011;10518;50.742;4.226;2023-05-10T09:52:57;2.40;;;0.90;;
20713;SDS011;10518;50.742;4.226;2023-05-10T09:55:45;1.98;;;1.73;;
20713;SDS011;10518;50.742;4.226;2023-05-10T09:58:12;0.80;;;0.80;;
20713;SDS011;10518;50.742;4.226;2023-05-10T10:00:39;0.65;;;0.65;;
20713;SDS011;10518;50.742;4.226;2023-05-10T10:03:06;0.77;;;0.70;;
20713;SDS011;10518;50.742;4.226;2023-05-10T10:05:38;1.30;;;0.85;;
20713;SDS011;10518;50.742;4.226;2023-05-10T10:08:05;0.50;;;0.50;;
20713;SDS011;10518;50.742;4.226;2023-05-10T10:10:32;0.63;;;0.63;;
20713;SDS011;10518;50.742;4.226;2023-05-10T10:12:58;1.00;;;0.75;;
20713;SDS011;10518;50.742;4.226;2023-05-10T10:15:25;0.50;;;0.50;;
20713;SDS011;10518;50.742;4.226;2023-05-10T10:17:51;0.65;;;0.63;;
20713;SDS011;10518;50.742;4.226;2023-05-10T10:20:18;1.65;;;1.23;;
20713;SDS011;10518;50.742;4.226;2023-05-10T10:22:45;0.60;;;0.60;;
20713;SDS011;10518;50.742;4.226;2023-05-10T10:25:12;1.83;;;1.13;;
20713;SDS011;10518;50.742;4.226;2023-05-10T10:27:54;1.55;;;0.85;;
20713;SDS011;10518;50.742;4.226;2023-05-10T10:30:29;2.15;;;0.70;;
20713;SDS011;10518;50.742;4.226;2023-05-10T10:35:53;1.17;;;0.70;;
20713;SDS011;10518;50.742;4.226;2023-05-10T10:38:20;1.08;;;0.73;;
20713;SDS011;10518;50.742;4.226;2023-05-10T10:40:46;1.50;;;1.30;;
20713;SDS011;10518;50.742;4.226;2023-05-10T10:43:22;1.20;;;1.10;;
20713;SDS011;10518;50.742;4.226;2023-05-10T10:46:09;1.15;;;1.05;;
20713;SDS011;10518;50.742;4.226;2023-05-10T10:48:36;1.33;;;0.95;;
20713;SDS011;10518;50.742;4.226;2023-05-10T10:51:02;1.73;;;0.88;;
20713;SDS011;10518;50.742;4.226;2023-05-10T10:53:28;1.60;;;1.10;;
20713;SDS011;10518;50.742;4.226;2023-05-10T10:56:07;1.25;;;1.15;;
20713;SDS011;10518;50.742;4.226;2023-05-10T10:58:34;1.58;;;1.25;;
20713;SDS011;10518;50.742;4.226;2023-05-10T11:01:17;1.48;;;1.38;;
20713;SDS011;10518;50.742;4.226;2023-05-10T11:08:58;1.50;;;1.20;;
20713;SDS011;10518;50.742;4.226;2023-05-10T11:11:24;1.52;;;1.25;;
20713;SDS011;10518;50.742;4.226;2023-05-10T11:13:50;2.15;;;1.10;;
20713;SDS011;10518;50.742;4.226;2023-05-10T11:16:20;1.10;;;1.00;;
20713;SDS011;10518;50.742;4.226;2023-05-10T11:18:52;1.65;;;1.15;;
20713;SDS011;10518;50.742;4.226;2023-05-10T11:21:21;1.40;;;1.00;;
20713;SDS011;10518;50.742;4.226;2023-05-10T11:23:47;3.38;;;1.40;;
20713;SDS011;10518;50.742;4.226;2023-05-10T11:26:20;2.03;;;0.98;;
20713;SDS011;10518;50.742;4.226;2023-05-10T11:28:50;1.65;;;1.20;;
20713;SDS011;10518;50.742;4.226;2023-05-10T11:31:17;1.13;;;0.90;;
20713;SDS011;10518;50.742;4.226;2023-05-10T11:33:47;1.50;;;1.08;;
20713;SDS011;10518;50.742;4.226;2023-05-10T11:36:18;0.68;;;0.68;;
20713;SDS011;10518;50.742;4.226;2023-05-10T11:38:50;1.45;;;1.20;;
20713;SDS011;10518;50.742;4.226;2023-05-10T11:41:17;2.83;;;1.27;;
20713;SDS011;10518;50.742;4.226;2023-05-10T11:43:44;1.33;;;1.15;;
20713;SDS011;10518;50.742;4.226;2023-05-10T11:46:12;0.90;;;0.73;;
20713;SDS011;10518;50.742;4.226;2023-05-10T11:48:39;1.38;;;1.00;;
20713;SDS011;10518;50.742;4.226;2023-05-10T11:51:08;0.90;;;0.75;;
20713;SDS011;10518;50.742;4.226;2023-05-10T11:53:35;1.13;;;0.82;;
20713;SDS011;10518;50.742;4.226;2023-05-10T11:56:07;1.73;;;1.10;;
20713;SDS011;10518;50.742;4.226;2023-05-10T11:58:34;0.75;;;0.75;;
20713;SDS011;10518;50.742;4.226;2023-05-10T12:01:01;1.42;;;1.25;;
20713;SDS011;10518;50.742;4.226;2023-05-10T12:03:28;1.55;;;1.23;;
20713;SDS011;10518;50.742;4.226;2023-05-10T12:05:54;2.00;;;1.02;;
20713;SDS011;10518;50.742;4.226;2023-05-10T12:08:22;2.10;;;0.98;;
20713;SDS011;10518;50.742;4.226;2023-05-10T12:10:49;2.78;;;0.90;;
20713;SDS011;10518;50.742;4.226;2023-05-10T12:13:15;1.63;;;1.00;;
20713;SDS011;10518;50.742;4.226;2023-05-10T12:15:42;1.23;;;0.88;;
20713;SDS011;10518;50.742;4.226;2023-05-10T12:18:09;1.20;;;0.88;;
20713;SDS011;10518;50.742;4.226;2023-05-10T12:20:36;1.65;;;1.20;;
20713;SDS011;10518;50.742;4.226;2023-05-10T12:23:02;1.88;;;1.23;;
20713;SDS011;10518;50.742;4.226;2023-05-10T12:25:46;3.55;;;1.42;;
20713;SDS011;10518;50.742;4.226;2023-05-10T12:28:12;1.90;;;1.00;;
20713;SDS011;10518;50.742;4.226;2023-05-10T12:30:38;1.45;;;1.02;;
20713;SDS011;10518;50.742;4.226;2023-05-10T12:35:43;1.83;;;1.20;;
20713;SDS011;10518;50.742;4.226;2023-05-10T12:40:54;2.17;;;1.48;;
20713;SDS011;10518;50.742;4.226;2023-05-10T12:43:20;1.65;;;0.85;;
20713;SDS011;10518;50.742;4.226;2023-05-10T12:45:46;1.00;;;0.90;;
20713;SDS011;10518;50.742;4.226;2023-05-10T12:48:13;1.45;;;1.08;;
20713;SDS011;10518;50.742;4.226;2023-05-10T12:50:40;1.17;;;1.08;;
20713;SDS011;10518;50.742;4.226;2023-05-10T12:53:05;2.55;;;1.50;;
20713;SDS011;10518;50.742;4.226;2023-05-10T12:55:31;2.22;;;1.10;;
20713;SDS011;10518;50.742;4.226;2023-05-10T12:57:57;1.20;;;1.10;;
20713;SDS011;10518;50.742;4.226;2023-05-10T13:00:22;2.80;;;1.50;;
20713;SDS011;10518;50.742;4.226;2023-05-10T13:02:48;1.33;;;1.10;;
20713;SDS011;10518;50.742;4.226;2023-05-10T13:05:13;2.58;;;1.42;;
20713;SDS011;10518;50.742;4.226;2023-05-10T13:07:39;2.08;;;1.23;;
20713;SDS011;10518;50.742;4.226;2023-05-10T13:10:05;1.63;;;1.33;;
20713;SDS011;10518;50.742;4.226;2023-05-10T13:12:31;1.80;;;1.40;;
20713;SDS011;10518;50.742;4.226;2023-05-10T13:14:57;2.97;;;1.60;;
20713;SDS011;10518;50.742;4.226;2023-05-10T13:17:24;2.28;;;1.60;;
20713;SDS011;10518;50.742;4.226;2023-05-10T13:19:50;3.10;;;1.55;;
20713;SDS011;10518;50.742;4.226;2023-05-10T13:22:16;1.75;;;1.30;;
20713;SDS011;10518;50.742;4.226;2023-05-10T13:24:42;2.53;;;1.10;;
20713;SDS011;10518;50.742;4.226;2023-05-10T13:27:07;1.95;;;1.25;;
20713;SDS011;10518;50.742;4.226;2023-05-10T13:29:33;3.58;;;1.90;;
20713;SDS011;10518;50.742;4.226;2023-05-10T13:31:59;1.40;;;0.98;;
20713;SDS011;10518;50.742;4.226;2023-05-10T13:34:25;1.90;;;1.67;;
20713;SDS011;10518;50.742;4.226;2023-05-10T13:36:50;2.80;;;1.20;;
20713;SDS011;10518;50.742;4.226;2023-05-10T13:39:17;1.55;;;1.33;;
20713;SDS011;10518;50.742;4.226;2023-05-10T13:41:43;1.75;;;1.35;;
20713;SDS011;10518;50.742;4.226;2023-05-10T13:44:09;1.58;;;1.02;;
20713;SDS011;10518;50.742;4.226;2023-05-10T13:46:37;4.80;;;1.50;;
20713;SDS011;10518;50.742;4.226;2023-05-10T13:49:03;1.77;;;1.00;;
20713;SDS011;10518;50.742;4.226;2023-05-10T13:51:29;1.90;;;1.23;;
20713;SDS011;10518;50.742;4.226;2023-05-10T13:53:56;2.75;;;1.33;;
20713;SDS011;10518;50.742;4.226;2023-05-10T13:56:22;2.58;;;1.63;;
20713;SDS011;10518;50.742;4.226;2023-05-10T13:58:48;2.20;;;1.35;;
20713;SDS011;10518;50.742;4.226;2023-05-10T14:01:13;3.25;;;1.65;;
20713;SDS011;10518;50.742;4.226;2023-05-10T14:03:39;3.20;;;1.38;;
20713;SDS011;10518;50.742;4.226;2023-05-10T14:06:05;2.90;;;1.65;;
20713;SDS011;10518;50.742;4.226;2023-05-10T14:08:32;3.00;;;1.35;;
20713;SDS011;10518;50.742;4.226;2023-05-10T14:10:58;9.70;;;1.88;;
20713;SDS011;10518;50.742;4.226;2023-05-10T14:13:23;2.53;;;1.17;;
20713;SDS011;10518;50.742;4.226;2023-05-10T14:15:50;4.15;;;1.60;;
20713;SDS011;10518;50.742;4.226;2023-05-10T14:18:16;2.67;;;1.33;;
20713;SDS011;10518;50.742;4.226;2023-05-10T14:20:41;3.10;;;1.48;;
20713;SDS011;10518;50.742;4.226;2023-05-10T14:23:07;2.10;;;1.50;;
20713;SDS011;10518;50.742;4.226;2023-05-10T14:25:32;3.42;;;1.67;;
20713;SDS011;10518;50.742;4.226;2023-05-10T14:27:59;3.75;;;1.83;;
20713;SDS011;10518;50.742;4.226;2023-05-10T14:30:25;2.28;;;1.63;;
20713;SDS011;10518;50.742;4.226;2023-05-10T14:32:50;3.22;;;1.67;;
20713;SDS011;10518;50.742;4.226;2023-05-10T14:35:18;2.33;;;1.55;;
20713;SDS011;10518;50.742;4.226;2023-05-10T14:37:44;2.50;;;1.40;;
20713;SDS011;10518;50.742;4.226;2023-05-10T14:40:10;2.15;;;1.50;;
20713;SDS011;10518;50.742;4.226;2023-05-10T14:42:37;3.80;;;1.67;;
20713;SDS011;10518;50.742;4.226;2023-05-10T14:45:03;4.35;;;2.28;;
20713;SDS011;10518;50.742;4.226;2023-05-10T14:47:29;4.00;;;1.90;;
20713;SDS011;10518;50.742;4.226;2023-05-10T14:49:55;3.17;;;2.10;;
20713;SDS011;10518;50.742;4.226;2023-05-10T14:52:20;2.05;;;1.67;;
20713;SDS011;10518;50.742;4.226;2023-05-10T14:54:46;4.45;;;2.10;;
20713;SDS011;10518;50.742;4.226;2023-05-10T14:57:11;3.85;;;2.25;;
20713;SDS011;10518;50.742;4.226;2023-05-10T14:59:37;5.70;;;2.60;;
20713;SDS011;10518;50.742;4.226;2023-05-10T15:02:03;5.35;;;1.65;;
20713;SDS011;10518;50.742;4.226;2023-05-10T15:04:29;2.42;;;1.73;;
20713;SDS011;10518;50.742;4.226;2023-05-10T15:06:55;3.35;;;2.15;;
20713;SDS011;10518;50.742;4.226;2023-05-10T15:09:24;2.22;;;1.63;;
20713;SDS011;10518;50.742;4.226;2023-05-10T15:11:50;7.68;;;1.85;;
20713;SDS011;10518;50.742;4.226;2023-05-10T15:14:16;2.85;;;1.83;;
20713;SDS011;10518;50.742;4.226;2023-05-10T15:16:41;2.60;;;1.77;;
20713;SDS011;10518;50.742;4.226;2023-05-10T15:19:07;2.03;;;1.38;;
20713;SDS011;10518;50.742;4.226;2023-05-10T15:21:32;1.52;;;1.42;;